createdAt,value
2022-07-29T00:08:12.464Z,17.9
2022-07-29T00:18:10.495Z,17.8
2022-07-29T00:28:10.669Z,17.7
2022-07-29T00:38:10.728Z,17.5
2022-07-29T00:48:10.874Z,17.5
2022-07-29T00:58:10.978Z,17.4
2022-07-29T01:08:11.246Z,17.3
2022-07-29T01:18:12.219Z,17.2
2022-07-29T01:38:13.142Z,16.8
2022-07-29T01:48:13.545Z,16.7
2022-07-29T01:58:14.259Z,16.6
2022-07-29T02:08:14.999Z,16.5
2022-07-29T02:18:15.318Z,16.3
2022-07-29T02:38:16.369Z,16.2
2022-07-29T02:48:16.840Z,16
2022-07-29T02:58:17.735Z,16
2022-07-29T03:28:18.367Z,15.7
2022-07-29T04:08:20.598Z,15.8
2022-07-29T04:18:20.664Z,15.9
2022-07-29T04:28:21.005Z,16
2022-07-29T04:38:21.569Z,16.2
2022-07-29T04:48:26.658Z,16.3
2022-07-29T04:58:21.867Z,16.2
2022-07-29T05:28:23.041Z,14.1
2022-07-29T05:58:25.214Z,14.3
2022-07-29T06:08:25.381Z,14.5
2022-07-29T06:18:25.592Z,14.6
2022-07-29T06:28:26.255Z,14.6
2022-07-29T06:38:31.851Z,15.1
2022-07-29T06:48:27.797Z,16.1
2022-07-29T06:58:28.584Z,16.2
2022-07-29T07:08:29.155Z,16.2
2022-07-29T07:38:30.856Z,17.1
2022-07-29T07:48:31.759Z,17.6
2022-07-29T07:58:32.734Z,18.2
2022-07-29T08:08:33.223Z,18.1
2022-07-29T08:38:35.175Z,18.5
2022-07-29T08:48:35.595Z,18.4
2022-07-29T08:58:36.538Z,18.3
2022-07-29T09:28:37.955Z,18.2
2022-07-29T09:48:39.115Z,17.9
2022-07-29T09:58:39.277Z,17.8
2022-07-29T10:08:39.498Z,17.7
2022-07-29T10:18:40.033Z,17.4
2022-07-29T10:28:40.306Z,17.4
2022-07-29T10:38:40.370Z,17.5
2022-07-29T10:48:41.039Z,17.5
2022-07-29T10:58:41.815Z,17.5
2022-07-29T11:08:41.874Z,17.5
2022-07-29T11:18:42.819Z,17.6
2022-07-29T11:28:42.912Z,17.6
2022-07-29T11:48:43.950Z,17.2
2022-07-29T12:28:47.178Z,18.2
2022-07-29T12:38:47.637Z,18.5
2022-07-29T12:48:48.141Z,19.2
2022-07-29T12:58:51.237Z,19.5
2022-07-29T13:08:49.568Z,20.9
2022-07-29T13:18:50.348Z,20.7
2022-07-29T13:28:50.608Z,21.4
2022-07-29T13:38:50.813Z,21.2
2022-07-29T13:58:51.772Z,22.3
2022-07-29T14:08:52.462Z,22.3
2022-07-29T14:18:52.542Z,22.1
2022-07-29T14:28:53.238Z,22.7
2022-07-29T14:38:53.689Z,22.8
2022-07-29T14:48:54.424Z,23.4
2022-07-29T14:58:54.571Z,24.4
2022-07-29T15:08:55.253Z,24.8
2022-07-29T15:18:56.144Z,24.4
2022-07-29T15:48:57.465Z,24.2
2022-07-29T16:18:57.883Z,24.5
2022-07-29T16:28:58.771Z,25.2
2022-07-29T16:49:00.197Z,24.7
2022-07-29T16:59:00.821Z,24.1
2022-07-29T17:09:00.964Z,23.7
2022-07-29T17:19:01.587Z,23.4
2022-07-29T17:49:02.890Z,22.6
2022-07-29T18:09:03.921Z,22.6
2022-07-29T18:19:04.298Z,22.5
2022-07-29T18:29:05.278Z,22.4
2022-07-29T18:39:05.561Z,22.2
2022-07-29T18:49:06.203Z,22
2022-07-29T18:59:06.826Z,21.7
2022-07-29T19:09:07.205Z,21.3
2022-07-29T19:19:07.482Z,21
2022-07-29T19:29:08.348Z,20.7
2022-07-29T19:39:09.254Z,20.3
2022-07-29T19:49:09.596Z,20
2022-07-29T19:59:10.594Z,19.9
2022-07-29T20:09:17.041Z,19.8
2022-07-29T20:29:11.559Z,19
2022-07-29T22:49:19.041Z,17.3
2022-07-29T23:29:21.676Z,17.1
2022-07-29T23:39:27.416Z,17.1
2022-07-29T23:49:28.328Z,17
2022-07-29T23:59:28.495Z,16.8
